Time;durP1;ratioP1;P1;durP2;ratioP2;P2;SDS_P1;SDS_P2;PMS_P1;PMS_P2;Temp;Humidity;BMP_temperature;BMP_pressure;BME280_temperature;BME280_humidity;BME280_pressure;Samples;Min_cycle;Max_cycle;Signal;HPM_P1;HPM_P2
2020/12/10 00:01:32;;;;;;;23.47;14.00;;;3.80;99.90;;;0.28;100.00;100751.06;5130541;27;20208;-79
2020/12/10 00:04:18;;;;;;;25.97;14.67;;;3.70;99.90;;;0.24;100.00;100750.19;5119833;28;20221;-79
2020/12/10 00:07:04;;;;;;;27.93;16.23;;;3.60;99.90;;;0.21;100.00;100739.97;5110860;28;20201;-79
2020/12/10 00:09:50;;;;;;;26.60;15.57;;;3.50;99.90;;;0.19;100.00;100738.22;5116079;28;20242;-80
2020/12/10 00:12:40;;;;;;;24.33;15.23;;;3.50;99.90;;;-0.07;100.00;100731.03;5119044;28;20278;-80
2020/12/10 00:15:26;;;;;;;25.80;14.53;;;3.40;99.90;;;-0.42;100.00;100721.97;5118848;28;20286;-79
2020/12/10 00:18:12;;;;;;;23.77;14.27;;;3.20;99.90;;;-0.60;100.00;100722.47;5120514;28;20204;-79
2020/12/10 00:20:57;;;;;;;26.30;13.77;;;3.20;99.90;;;-0.60;100.00;100721.63;5119227;28;20290;-79
2020/12/10 00:23:47;;;;;;;26.73;15.40;;;3.10;99.90;;;-0.73;100.00;100720.53;5116415;28;20661;-79
2020/12/10 00:26:32;;;;;;;26.03;15.30;;;3.00;99.90;;;-0.59;100.00;100718.25;5104412;28;20250;-80
2020/12/10 00:29:18;;;;;;;26.33;15.47;;;2.90;99.90;;;-0.74;100.00;100714.63;5110581;28;20209;-81
2020/12/10 00:32:03;;;;;;;27.63;14.17;;;2.80;99.90;;;-0.94;100.00;100713.38;5110024;28;20205;-79
2020/12/10 00:34:49;;;;;;;28.97;16.37;;;2.70;99.90;;;-1.00;100.00;100715.81;5132161;28;20295;-80
2020/12/10 00:37:36;;;;;;;29.67;16.40;;;2.60;99.90;;;-0.89;100.00;100711.78;5120909;28;20222;-79
2020/12/10 00:40:22;;;;;;;27.30;16.03;;;2.40;99.90;;;-0.80;100.00;100713.63;5111305;28;20254;-79
2020/12/10 00:43:07;;;;;;;27.27;14.83;;;2.30;99.90;;;-0.98;100.00;100709.91;5127179;28;20384;-79
2020/12/10 00:45:52;;;;;;;28.67;15.30;;;2.20;99.90;;;-1.18;100.00;100706.97;5137997;28;20191;-78
2020/12/10 00:48:38;;;;;;;25.90;14.83;;;2.20;99.90;;;-1.43;100.00;100703.06;5118162;28;20196;-80
2020/12/10 00:51:23;;;;;;;30.57;15.37;;;2.10;99.90;;;-1.22;100.00;100697.59;5117116;28;20213;-80
2020/12/10 00:54:08;;;;;;;27.77;15.37;;;2.00;99.90;;;-1.01;100.00;100701.38;5109515;28;20216;-79
2020/12/10 00:56:54;;;;;;;30.90;16.73;;;1.90;99.90;;;-0.90;100.00;100703.31;5116450;28;20248;-79
2020/12/10 00:59:40;;;;;;;29.77;15.87;;;1.90;99.90;;;-1.09;100.00;100697.00;5131417;28;20216;-79
2020/12/10 01:02:26;;;;;;;32.30;17.00;;;1.80;99.90;;;-1.05;100.00;100690.28;5107932;28;20201;-79
2020/12/10 01:05:11;;;;;;;31.13;17.27;;;1.70;99.90;;;-1.00;100.00;100700.56;5116652;28;20210;-79
2020/12/10 01:07:56;;;;;;;30.57;17.33;;;1.60;99.90;;;-1.17;100.00;100690.06;5111228;28;20201;-80
2020/12/10 01:10:41;;;;;;;31.23;17.07;;;1.60;99.90;;;-1.22;100.00;100689.13;5116601;28;20209;-79
2020/12/10 01:13:28;;;;;;;29.27;17.63;;;1.50;99.90;;;-1.26;100.00;100683.97;5115584;28;20286;-79
2020/12/10 01:16:13;;;;;;;35.13;17.60;;;1.50;99.90;;;-1.31;100.00;100689.78;5111073;28;20197;-80
2020/12/10 01:18:58;;;;;;;32.23;16.63;;;1.40;99.90;;;-1.26;100.00;100688.19;5118367;28;20293;-79
2020/12/10 01:21:44;;;;;;;34.53;19.17;;;1.40;99.90;;;-1.19;100.00;100690.03;5112728;28;20707;-80
2020/12/10 01:24:29;;;;;;;30.97;17.13;;;1.30;99.90;;;-1.28;100.00;100683.09;5129266;28;20246;-80
2020/12/10 01:27:14;;;;;;;31.97;18.03;;;1.30;99.90;;;-1.41;100.00;100688.72;5115018;28;20209;-80
2020/12/10 01:30:00;;;;;;;34.97;19.77;;;1.20;99.90;;;-1.38;100.00;100693.03;5118790;28;20208;-80
2020/12/10 01:32:46;;;;;;;31.43;16.97;;;1.20;99.90;;;-1.65;100.00;100691.59;5126629;28;20228;-79
2020/12/10 01:35:31;;;;;;;31.67;17.23;;;1.10;99.90;;;-1.78;100.00;100696.38;5108415;28;20605;-79
2020/12/10 01:38:16;;;;;;;32.50;17.97;;;1.10;99.90;;;-1.61;100.00;100694.25;5117517;28;20202;-80
2020/12/10 01:41:01;;;;;;;31.20;16.70;;;1.00;99.90;;;-1.56;100.00;100694.34;5114397;28;20215;-79
2020/12/10 01:43:47;;;;;;;34.10;18.33;;;1.00;99.90;;;-1.50;100.00;100689.38;5108003;28;20224;-80
2020/12/10 01:46:35;;;;;;;35.03;19.63;;;0.90;99.90;;;-1.55;100.00;100687.56;5107011;28;20267;-79
2020/12/10 01:49:21;;;;;;;39.73;20.10;;;0.90;99.90;;;-1.48;100.00;100692.81;5121879;28;20212;-78
2020/12/10 01:52:07;;;;;;;35.93;19.60;;;0.90;99.90;;;-1.58;100.00;100695.97;5132391;27;20816;-79
2020/12/10 01:54:52;;;;;;;34.47;19.40;;;0.80;99.90;;;-1.69;100.00;100687.28;5113107;28;20233;-78
2020/12/10 01:57:38;;;;;;;39.30;20.37;;;0.80;99.90;;;-1.58;100.00;100683.28;5114608;28;20201;-79
2020/12/10 02:00:23;;;;;;;36.87;19.03;;;0.80;99.90;;;-1.69;100.00;100687.28;5112943;28;20228;-78
2020/12/10 02:03:09;;;;;;;43.23;20.97;;;0.80;99.90;;;-1.77;100.00;100685.44;5118083;28;20223;-79
2020/12/10 02:05:54;;;;;;;35.43;16.87;;;0.80;99.90;;;-1.99;100.00;100688.31;5114678;28;20196;-81
2020/12/10 02:08:44;;;;;;;38.23;19.97;;;0.70;99.90;;;-1.91;100.00;100684.25;5111434;28;20201;-80
2020/12/10 02:11:29;;;;;;;38.20;20.57;;;0.70;99.90;;;-1.84;100.00;100687.78;5115350;28;20202;-79
2020/12/10 02:14:14;;;;;;;36.57;18.57;;;0.70;99.90;;;-2.06;100.00;100683.91;5119830;28;20241;-79
2020/12/10 02:17:01;;;;;;;36.20;18.60;;;0.70;99.90;;;-1.85;100.00;100678.47;5124839;28;20293;-78
2020/12/10 02:19:47;;;;;;;36.00;19.03;;;0.60;99.90;;;-2.03;100.00;100681.44;5115380;28;20200;-79
2020/12/10 02:22:32;;;;;;;36.90;20.13;;;0.50;99.90;;;-2.09;100.00;100681.28;5108979;28;20204;-80
2020/12/10 02:25:18;;;;;;;36.37;18.03;;;0.60;99.90;;;-2.38;100.00;100673.84;5122422;28;20280;-79
2020/12/10 02:28:13;;;;;;;34.17;16.47;;;0.60;99.90;;;-2.42;100.00;100677.97;5109134;28;20200;-79
2020/12/10 02:30:58;;;;;;;30.87;16.30;;;0.60;99.90;;;-2.39;100.00;100667.03;5116802;28;20285;-78
2020/12/10 02:33:43;;;;;;;35.47;18.17;;;0.50;99.90;;;-2.54;100.00;100670.94;5116071;28;20355;-79
2020/12/10 02:36:29;;;;;;;34.73;18.50;;;0.50;99.90;;;-2.32;100.00;100666.38;5117280;28;20189;-78
2020/12/10 02:39:15;;;;;;;38.07;19.70;;;0.50;99.90;;;-2.31;100.00;100660.50;5129715;28;20199;-80
2020/12/10 02:42:01;;;;;;;42.57;19.57;;;0.50;99.90;;;-2.33;100.00;100657.94;5115868;28;20205;-79
2020/12/10 02:44:46;;;;;;;35.30;18.77;;;0.40;99.90;;;-2.53;100.00;100657.44;5108693;28;20279;-80
2020/12/10 02:47:32;;;;;;;34.60;18.63;;;0.40;99.90;;;-2.42;100.00;100659.38;5126227;28;20201;-80
2020/12/10 02:50:17;;;;;;;42.77;20.03;;;0.40;99.90;;;-2.52;100.00;100660.84;5110976;28;20198;-80
2020/12/10 02:53:04;;;;;;;37.27;17.13;;;0.40;99.90;;;-2.41;100.00;100658.56;5106360;28;20237;-79
2020/12/10 02:55:49;;;;;;;38.60;20.23;;;0.40;99.90;;;-2.49;100.00;100651.63;5103493;28;20213;-79
2020/12/10 02:58:35;;;;;;;36.37;18.93;;;0.30;99.90;;;-2.63;100.00;100636.91;5106268;28;20225;-79
2020/12/10 03:01:21;;;;;;;37.50;19.73;;;0.30;99.90;;;-2.70;100.00;100634.22;5108028;28;20194;-79
2020/12/10 03:04:06;;;;;;;36.97;19.87;;;0.30;99.90;;;-2.54;100.00;100632.94;5110171;28;20232;-79
2020/12/10 03:06:51;;;;;;;36.37;17.93;;;0.30;99.90;;;-2.69;100.00;100632.53;5126689;28;20251;-79
2020/12/10 03:09:36;;;;;;;34.40;17.53;;;0.30;99.90;;;-2.78;100.00;100633.16;5108364;28;20209;-79
2020/12/10 03:12:22;;;;;;;35.20;18.47;;;0.20;99.90;;;-2.87;100.00;100628.72;5125506;28;20276;-79
2020/12/10 03:15:08;;;;;;;34.23;16.70;;;0.20;99.90;;;-2.93;100.00;100628.56;5106529;28;20267;-78
2020/12/10 03:17:53;;;;;;;31.67;17.33;;;0.20;99.90;;;-2.94;100.00;100621.78;5117357;28;20274;-79
2020/12/10 03:20:41;;;;;;;32.67;17.77;;;0.20;99.90;;;-2.88;100.00;100631.22;5105737;28;20274;-79
2020/12/10 03:23:26;;;;;;;31.00;16.20;;;0.20;99.90;;;-3.00;100.00;100627.56;5121118;28;20228;-79
2020/12/10 03:26:12;;;;;;;30.17;15.47;;;0.10;99.90;;;-3.18;100.00;100625.38;5119721;28;20200;-79
2020/12/10 03:28:57;;;;;;;29.37;16.17;;;0.10;99.90;;;-3.07;100.00;100634.91;5113546;28;20251;-79
2020/12/10 03:31:43;;;;;;;27.67;15.23;;;0.10;99.90;;;-3.11;100.00;100638.22;5126915;27;20275;-79
2020/12/10 03:34:29;;;;;;;28.47;15.47;;;0.10;99.90;;;-3.13;100.00;100629.69;5107722;28;20647;-79
2020/12/10 03:37:14;;;;;;;28.60;15.23;;;0.10;99.90;;;-3.31;100.00;100628.38;5110474;28;20205;-79
2020/12/10 03:40:00;;;;;;;28.03;15.47;;;0.00;99.90;;;-3.49;100.00;100636.31;5124104;27;20213;-79
2020/12/10 03:42:45;;;;;;;26.57;14.17;;;0.00;99.90;;;-3.59;100.00;100630.16;5116592;28;20229;-79
2020/12/10 03:45:33;;;;;;;30.37;15.93;;;0.00;99.90;;;-3.21;100.00;100626.97;5116410;28;20258;-80
2020/12/10 03:48:19;;;;;;;29.47;15.70;;;0.00;99.90;;;-3.09;100.00;100617.16;5105090;28;20280;-79
2020/12/10 03:51:04;;;;;;;34.73;17.30;;;-0.10;99.90;;;-2.89;100.00;100624.47;5113222;28;20209;-80
2020/12/10 03:53:49;;;;;;;33.27;17.73;;;-0.10;99.90;;;-2.93;100.00;100628.56;5122373;28;20228;-78
2020/12/10 03:56:35;;;;;;;34.63;18.30;;;-0.10;99.90;;;-2.73;100.00;100615.56;5124733;28;20205;-79
2020/12/10 03:59:20;;;;;;;38.00;20.33;;;-0.10;99.90;;;-2.57;100.00;100621.88;5124784;28;20282;-79
2020/12/10 04:02:06;;;;;;;42.07;21.70;;;-0.10;99.90;;;-2.46;100.00;100625.53;5123057;28;20225;-80
2020/12/10 04:04:52;;;;;;;37.50;18.73;;;-0.10;99.90;;;-2.56;100.00;100626.97;5105215;28;20230;-80
2020/12/10 04:07:37;;;;;;;34.80;17.57;;;-0.10;99.90;;;-2.58;100.00;100627.75;5107946;28;20221;-80
2020/12/10 04:10:22;;;;;;;40.10;18.50;;;-0.10;99.90;;;-2.59;100.00;100621.81;5123219;28;20204;-79
2020/12/10 04:13:08;;;;;;;39.63;20.20;;;0.00;99.90;;;-2.59;100.00;100618.44;5117094;28;20220;-79
2020/12/10 04:15:53;;;;;;;34.27;18.17;;;0.00;99.90;;;-2.82;100.00;100622.13;5109359;28;20209;-79
2020/12/10 04:18:41;;;;;;;31.23;17.20;;;0.00;99.90;;;-2.83;100.00;100627.13;5107074;28;20212;-80
2020/12/10 04:21:27;;;;;;;33.17;16.67;;;0.00;99.90;;;-2.85;100.00;100626.22;5109282;28;20233;-79
2020/12/10 04:24:12;;;;;;;36.73;17.60;;;0.00;99.90;;;-2.79;100.00;100623.00;5111925;28;20590;-80
2020/12/10 04:26:58;;;;;;;34.13;16.63;;;0.00;99.90;;;-2.84;100.00;100617.81;5118988;28;20196;-79
2020/12/10 04:29:43;;;;;;;36.80;17.23;;;0.00;99.90;;;-2.79;100.00;100616.28;5131086;28;20213;-79
2020/12/10 04:32:28;;;;;;;37.13;18.90;;;0.00;99.90;;;-2.77;100.00;100613.78;5115878;28;20213;-79
2020/12/10 04:35:14;;;;;;;34.10;17.63;;;0.00;99.90;;;-2.93;100.00;100618.44;5116596;28;20207;-79
2020/12/10 04:38:00;;;;;;;30.23;16.60;;;0.00;99.90;;;-3.14;100.00;100613.69;5119739;28;20208;-79
2020/12/10 04:40:45;;;;;;;31.67;15.93;;;-0.10;99.90;;;-3.15;100.00;100611.09;5110164;28;20204;-79
2020/12/10 04:43:31;;;;;;;33.57;16.53;;;-0.10;99.90;;;-3.09;100.00;100609.59;5115279;28;20248;-80
2020/12/10 04:46:19;;;;;;;26.97;15.67;;;-0.10;99.90;;;-3.05;100.00;100602.94;5113756;28;20246;-79
2020/12/10 04:49:05;;;;;;;33.53;16.33;;;-0.10;99.90;;;-3.15;100.00;100603.53;5098548;28;20286;-80
2020/12/10 04:51:50;;;;;;;28.57;14.47;;;0.00;99.90;;;-3.23;100.00;100608.38;5100987;28;20282;-79
2020/12/10 04:54:36;;;;;;;31.97;15.93;;;-0.10;99.90;;;-3.10;100.00;100609.53;5121173;28;20225;-79
2020/12/10 04:57:26;;;;;;;32.77;16.80;;;-0.10;99.90;;;-3.00;100.00;100612.38;5106056;28;20208;-79
2020/12/10 05:00:14;;;;;;;31.00;15.83;;;-0.20;99.90;;;-3.01;100.00;100609.81;5106075;28;20264;-80
2020/12/10 05:02:59;;;;;;;29.40;17.10;;;-0.20;99.90;;;-3.04;100.00;100607.16;5100890;28;20352;-79
2020/12/10 05:05:44;;;;;;;37.83;18.73;;;-0.20;99.90;;;-2.91;100.00;100610.88;5114249;28;20316;-80
2020/12/10 05:08:31;;;;;;;37.73;17.87;;;-0.20;99.90;;;-2.93;100.00;100610.84;5099837;28;20201;-79
2020/12/10 05:11:34;;;;;;;42.73;19.13;;;-0.20;99.90;;;-2.95;100.00;100615.03;5110360;28;20193;-79
2020/12/10 05:14:19;;;;;;;35.13;19.33;;;-0.20;99.90;;;-2.85;100.00;100614.44;5121014;28;20623;-80
2020/12/10 05:17:13;;;;;;;35.50;18.30;;;-0.20;99.90;;;-2.90;100.00;100605.88;5105273;28;20209;-80
2020/12/10 05:19:58;;;;;;;38.53;20.70;;;-0.20;99.90;;;-3.03;100.00;100601.31;5121495;27;20765;-79
2020/12/10 05:22:45;;;;;;;36.43;19.27;;;-0.20;99.90;;;-2.95;100.00;100599.84;5127214;27;20224;-80
2020/12/10 05:25:30;;;;;;;34.37;18.37;;;-0.20;99.90;;;-2.98;100.00;100594.69;5122148;27;20204;-79
2020/12/10 05:28:17;;;;;;;34.47;18.23;;;-0.20;99.90;;;-3.17;100.00;100593.38;5132716;28;20188;-81
2020/12/10 05:31:06;;;;;;;32.70;17.67;;;-0.30;99.90;;;-3.15;100.00;100590.88;5117339;27;20278;-79
2020/12/10 05:33:54;;;;;;;41.83;18.07;;;-0.30;99.90;;;-3.17;100.00;100588.31;5115828;28;20221;-82
2020/12/10 05:36:45;;;;;;;31.37;15.97;;;-0.30;99.90;;;-3.18;100.00;100591.63;5120696;28;20278;-79
2020/12/10 05:39:30;;;;;;;34.70;17.23;;;-0.30;99.90;;;-3.19;100.00;100588.25;5109634;28;20277;-78
2020/12/10 05:42:15;;;;;;;34.13;17.90;;;-0.30;99.90;;;-3.09;100.00;100593.56;5121876;28;20204;-79
2020/12/10 05:45:10;;;;;;;38.20;18.27;;;-0.30;99.90;;;-3.27;100.00;100596.47;5118315;28;20200;-80
2020/12/10 05:47:58;;;;;;;34.33;17.40;;;-0.30;99.90;;;-3.35;100.00;100603.84;5111429;28;20278;-81
2020/12/10 05:50:43;;;;;;;30.97;16.60;;;-0.40;99.90;;;-3.49;100.00;100607.66;5117405;28;20196;-81
2020/12/10 05:53:35;;;;;;;30.00;15.70;;;-0.40;99.90;;;-3.70;100.00;100608.75;5109956;28;20313;-79
2020/12/10 05:56:20;;;;;;;28.13;15.80;;;-0.40;99.90;;;-3.48;100.00;100606.81;5111820;28;20213;-79
2020/12/10 05:59:06;;;;;;;34.50;16.57;;;-0.40;99.90;;;-3.32;100.00;100603.94;5119937;28;20228;-80
2020/12/10 06:01:57;;;;;;;32.03;16.03;;;-0.40;99.90;;;-3.48;100.00;100616.94;5109485;28;20256;-80
2020/12/10 06:04:42;;;;;;;33.87;17.47;;;-0.40;99.90;;;-3.40;100.00;100612.97;5100069;28;20303;-79
2020/12/10 06:07:27;;;;;;;29.37;15.70;;;-0.40;99.90;;;-3.39;100.00;100604.56;5118457;28;20208;-79
2020/12/10 06:10:13;;;;;;;36.47;17.43;;;-0.40;99.90;;;-3.46;100.00;100615.31;5100251;28;20311;-79
2020/12/10 06:12:59;;;;;;;34.97;18.07;;;-0.50;99.90;;;-3.48;100.00;100607.69;5119143;28;20262;-79
2020/12/10 06:15:44;;;;;;;31.70;17.33;;;-0.50;99.90;;;-3.36;100.00;100614.75;5121797;28;20208;-79
2020/12/10 06:18:31;;;;;;;39.23;19.53;;;-0.50;99.90;;;-3.38;100.00;100622.31;5123467;28;20224;-81
2020/12/10 06:21:32;;;;;;;37.87;19.53;;;-0.50;99.90;;;-3.28;100.00;100641.09;5106292;28;20211;-80
2020/12/10 06:24:36;;;;;;;39.23;18.80;;;-0.50;99.90;;;-3.39;100.00;100642.50;5121258;28;20227;-81
2020/12/10 06:27:28;;;;;;;40.83;19.10;;;-0.50;99.90;;;-3.27;100.00;100642.84;5111837;28;20204;-80
2020/12/10 06:33:39;;;;;;;35.97;18.37;;;-0.50;99.90;;;-3.30;100.00;100650.34;5109745;28;20414;-77
2020/12/10 06:36:26;;;;;;;37.27;19.33;;;-0.50;99.90;;;-3.48;100.00;100654.84;5117042;28;20225;-78
2020/12/10 06:39:12;;;;;;;39.40;21.33;;;-0.50;99.90;;;-3.30;100.00;100652.03;5116143;28;20204;-79
2020/12/10 06:42:00;;;;;;;37.50;19.27;;;-0.50;99.90;;;-3.48;100.00;100653.22;5110749;28;20751;-79
2020/12/10 06:44:47;;;;;;;36.50;17.83;;;-0.50;99.90;;;-3.48;100.00;100657.38;5125298;28;20224;-78
2020/12/10 06:47:41;;;;;;;36.90;19.73;;;-0.50;99.90;;;-3.30;100.00;100657.06;5104327;28;20268;-78
2020/12/10 06:50:30;;;;;;;40.43;21.60;;;-0.50;99.90;;;-3.17;100.00;100657.44;5110283;28;20588;-78
2020/12/10 06:53:18;;;;;;;41.87;21.03;;;-0.60;99.90;;;-3.22;100.00;100663.19;5117215;28;20719;-78
2020/12/10 06:56:13;;;;;;;47.77;21.50;;;-0.60;99.90;;;-3.20;100.00;100664.09;5115507;28;20220;-78
2020/12/10 06:59:00;;;;;;;43.73;21.40;;;-0.50;99.90;;;-3.20;100.00;100659.06;5117480;28;20197;-79
2020/12/10 07:01:45;;;;;;;39.47;21.03;;;-0.60;99.90;;;-3.21;100.00;100672.50;5116666;28;20229;-78
2020/12/10 07:04:46;;;;;;;45.53;19.73;;;-0.60;99.90;;;-3.35;100.00;100664.53;5116193;28;20263;-78
2020/12/10 07:07:32;;;;;;;45.03;21.17;;;-0.50;99.90;;;-3.23;100.00;100664.88;5114983;28;20257;-78
2020/12/10 07:10:18;;;;;;;47.17;20.43;;;-0.50;99.90;;;-3.32;100.00;100669.69;5123106;28;20224;-75
2020/12/10 07:13:03;;;;;;;43.07;21.53;;;-0.50;99.90;;;-3.28;100.00;100663.03;5115166;28;20490;-78
2020/12/10 07:15:50;;;;;;;39.13;20.67;;;-0.60;99.90;;;-3.33;100.00;100662.91;5119179;28;20212;-78
2020/12/10 07:18:35;;;;;;;43.13;20.00;;;-0.60;99.90;;;-3.52;100.00;100664.88;5126161;28;20193;-76
2020/12/10 07:21:22;;;;;;;41.63;18.97;;;-0.60;99.90;;;-3.40;100.00;100659.31;5112890;28;20236;-78
2020/12/10 07:24:09;;;;;;;43.50;20.87;;;-0.60;99.90;;;-3.35;100.00;100651.88;5118510;28;20237;-80
2020/12/10 07:26:57;;;;;;;41.50;21.03;;;-0.60;99.90;;;-3.33;100.00;100655.31;5124175;28;20207;-78
2020/12/10 07:29:50;;;;;;;39.73;20.23;;;-0.60;99.90;;;-3.39;100.00;100652.63;5120871;28;20229;-78
2020/12/10 07:32:42;;;;;;;40.60;19.20;;;-0.60;99.90;;;-3.42;100.00;100652.53;5126227;28;20201;-77
2020/12/10 07:35:39;;;;;;;39.13;19.23;;;-0.60;99.90;;;-3.47;100.00;100664.16;5129197;28;20205;-77
2020/12/10 07:38:25;;;;;;;42.30;20.27;;;-0.60;99.90;;;-3.35;100.00;100660.31;5122756;28;20181;-77
2020/12/10 07:41:11;;;;;;;48.47;22.13;;;-0.70;99.90;;;-3.20;100.00;100654.84;5124142;28;20197;-78
2020/12/10 07:43:59;;;;;;;43.93;22.13;;;-0.70;99.90;;;-3.19;100.00;100653.16;5128017;28;20229;-77
2020/12/10 07:46:45;;;;;;;45.67;22.67;;;-0.60;99.90;;;-3.17;100.00;100654.91;5124640;28;20220;-78
2020/12/10 07:49:33;;;;;;;52.57;24.17;;;-0.70;99.90;;;-3.12;100.00;100651.66;5124257;28;20689;-78
2020/12/10 07:52:19;;;;;;;47.67;21.67;;;-0.70;99.90;;;-3.22;100.00;100651.41;5126101;28;20204;-78
2020/12/10 07:55:08;;;;;;;45.10;21.07;;;-0.70;99.90;;;-3.43;100.00;100650.81;5116052;28;20225;-78
2020/12/10 07:58:06;;;;;;;43.70;21.23;;;-0.70;99.90;;;-3.41;100.00;100651.69;5124750;28;20188;-78
2020/12/10 08:00:53;;;;;;;39.53;19.20;;;-0.70;99.90;;;-3.60;100.00;100661.28;5118665;28;20219;-78
2020/12/10 08:04:10;;;;;;;43.33;20.23;;;-0.70;99.90;;;-3.60;100.00;100670.53;5115785;28;20213;-78
2020/12/10 08:06:55;;;;;;;47.87;22.57;;;-0.80;99.90;;;-3.26;100.00;100658.84;5117351;28;20237;-78
2020/12/10 08:09:48;;;;;;;54.47;26.43;;;-0.80;99.90;;;-2.92;100.00;100659.78;5123312;28;20211;-77
2020/12/10 08:12:33;;;;;;;53.00;23.50;;;-0.80;99.90;;;-2.86;100.00;100657.44;5120927;28;20239;-77
2020/12/10 08:15:21;;;;;;;62.97;27.50;;;-0.60;99.90;;;-2.94;100.00;100651.31;5122133;28;20212;-79
2020/12/10 08:18:08;;;;;;;55.67;25.13;;;-0.80;99.90;;;-2.95;100.00;100655.50;5121858;28;20192;-77
2020/12/10 08:20:54;;;;;;;57.37;27.53;;;-0.80;99.90;;;-2.86;100.00;100650.69;5120912;28;20254;-78
2020/12/10 08:23:45;;;;;;;60.20;27.67;;;-0.80;99.90;;;-2.84;100.00;100649.03;5118443;28;20246;-78
2020/12/10 08:26:31;;;;;;;61.40;27.67;;;-0.80;99.90;;;-2.81;100.00;100645.75;5108218;28;20202;-78
2020/12/10 08:29:16;;;;;;;57.83;27.03;;;-0.80;99.90;;;-2.77;100.00;100645.00;5122780;28;20196;-78
2020/12/10 08:32:10;;;;;;;70.97;26.77;;;-0.70;99.90;;;-2.70;100.00;100648.53;5131709;28;20208;-78
2020/12/10 08:35:06;;;;;;;71.20;29.80;;;-0.70;99.90;;;-2.53;100.00;100654.91;5112128;28;20214;-79
2020/12/10 08:37:52;;;;;;;75.50;28.47;;;-0.70;99.90;;;-2.27;100.00;100652.16;5126115;28;20228;-78
2020/12/10 08:40:38;;;;;;;77.23;32.40;;;-0.70;99.90;;;-1.96;100.00;100657.94;5124595;28;20231;-78
2020/12/10 08:43:23;;;;;;;84.23;33.70;;;-0.60;99.90;;;-1.56;100.00;100657.97;5120490;28;20223;-77
2020/12/10 08:46:14;;;;;;;100.50;37.87;;;-0.60;99.90;;;-1.28;100.00;100649.25;5132026;28;20219;-79
2020/12/10 08:49:20;;;;;;;121.57;38.23;;;-0.50;99.90;;;-1.06;100.00;100655.59;5119064;28;20254;-77
2020/12/10 08:52:05;;;;;;;113.70;42.13;;;-0.40;99.90;;;-0.95;100.00;100660.88;5133772;28;20189;-78
2020/12/10 08:54:51;;;;;;;118.97;43.93;;;-0.20;99.90;;;-0.79;100.00;100660.31;5118571;28;20217;-80
2020/12/10 08:57:48;;;;;;;138.03;42.93;;;-0.10;99.90;;;-0.77;100.00;100653.63;5111690;28;20231;-79
2020/12/10 09:00:37;;;;;;;122.27;41.67;;;0.10;99.90;;;-0.64;100.00;100654.66;5128589;28;20212;-80
2020/12/10 09:03:24;;;;;;;133.73;45.53;;;0.30;99.90;;;-0.41;100.00;100659.31;5125273;28;20233;-78
2020/12/10 09:06:10;;;;;;;110.80;41.47;;;0.50;99.90;;;-0.33;100.00;100659.44;5118944;28;20219;-79
2020/12/10 09:08:55;;;;;;;114.03;39.13;;;0.70;99.90;;;-0.16;100.00;100657.13;5131806;28;20188;-80
2020/12/10 09:11:46;;;;;;;85.37;36.37;;;0.90;99.90;;;-0.40;100.00;100659.31;5130577;28;20224;-79
2020/12/10 09:14:31;;;;;;;69.27;29.57;;;1.10;99.90;;;-0.74;100.00;100661.28;5113709;28;20227;-80
2020/12/10 09:17:16;;;;;;;49.70;24.67;;;1.30;99.90;;;-0.97;100.00;100655.78;5114111;28;20213;-80
2020/12/10 09:20:02;;;;;;;46.37;25.40;;;1.50;99.90;;;-1.38;100.00;100668.50;5119762;28;20224;-80
2020/12/10 09:22:48;;;;;;;48.27;25.03;;;1.60;99.90;;;-0.25;100.00;100671.44;5127449;28;20236;-78
2020/12/10 09:25:33;;;;;;;60.13;28.40;;;1.70;99.90;;;0.23;100.00;100656.88;5115156;28;20550;-80
2020/12/10 09:28:19;;;;;;;69.30;31.97;;;1.70;99.90;;;0.54;100.00;100659.00;5121267;28;20204;-80
2020/12/10 09:31:04;;;;;;;51.07;27.03;;;1.80;99.90;;;0.53;100.00;100665.75;5110901;28;20209;-81
2020/12/10 09:33:50;;;;;;;55.77;27.30;;;1.90;99.90;;;1.02;100.00;100658.72;5120378;28;20274;-81
2020/12/10 09:36:35;;;;;;;42.63;23.67;;;2.10;99.90;;;1.16;100.00;100658.00;5121452;28;20232;-79
2020/12/10 09:39:21;;;;;;;48.70;25.30;;;2.40;99.90;;;1.61;100.00;100658.41;5112275;28;20204;-80
2020/12/10 09:42:06;;;;;;;44.07;25.43;;;2.60;99.90;;;2.03;100.00;100655.34;5115504;28;20710;-80
2020/12/10 09:44:52;;;;;;;50.27;26.70;;;2.90;99.90;;;2.92;100.00;100656.66;5114980;28;20307;-79
2020/12/10 09:47:37;;;;;;;44.10;24.57;;;3.10;99.90;;;3.08;100.00;100657.53;5108644;28;20251;-80
2020/12/10 09:50:25;;;;;;;40.47;23.20;;;3.40;99.90;;;3.12;100.00;100652.44;5112662;28;20205;-81
2020/12/10 09:53:13;;;;;;;33.47;19.77;;;3.70;99.90;;;2.57;100.00;100652.25;5128148;28;20650;-79
2020/12/10 09:59:06;;;;;;;31.60;19.10;;;4.30;99.90;;;0.77;100.00;100659.25;5109078;28;20483;-80
2020/12/10 10:01:52;;;;;;;31.37;19.00;;;4.50;99.90;;;0.75;100.00;100664.34;5115980;28;20209;-81
2020/12/10 10:04:37;;;;;;;32.10;19.33;;;4.70;99.90;;;0.23;100.00;100656.88;5133920;28;20240;-79
2020/12/10 10:07:23;;;;;;;31.33;19.90;;;4.80;99.90;;;0.01;100.00;100658.25;5133369;28;20223;-78
2020/12/10 10:10:08;;;;;;;28.87;17.37;;;4.80;99.90;;;0.07;100.00;100643.09;5134061;28;20184;-79
2020/12/10 10:12:54;;;;;;;31.37;18.87;;;4.80;99.90;;;0.03;100.00;100637.94;5133306;28;20260;-79
2020/12/10 10:15:41;;;;;;;33.23;19.77;;;4.80;99.90;;;0.05;100.00;100629.50;5130947;28;20293;-79
2020/12/10 10:18:26;;;;;;;30.47;19.47;;;4.70;99.90;;;0.09;100.00;100635.47;5113378;28;20251;-79
2020/12/10 10:21:17;;;;;;;30.13;19.47;;;4.70;99.90;;;0.01;100.00;100632.81;5131762;28;20203;-78
2020/12/10 10:24:03;;;;;;;33.20;19.27;;;4.60;99.90;;;-0.07;100.00;100635.25;5132524;28;20260;-83
2020/12/10 10:26:49;;;;;;;32.70;19.40;;;4.60;99.90;;;-0.14;100.00;100630.91;5121551;28;20220;-79
2020/12/10 10:29:35;;;;;;;33.10;21.07;;;4.60;99.90;;;-0.08;100.00;100633.53;5126917;28;20200;-80
2020/12/10 10:32:20;;;;;;;32.70;19.97;;;4.50;99.90;;;-0.04;100.00;100627.69;5111665;28;20213;-80
2020/12/10 10:35:06;;;;;;;31.40;20.30;;;4.50;99.90;;;-0.08;100.00;100628.47;5116389;28;20278;-77
2020/12/10 10:37:51;;;;;;;33.80;20.87;;;4.40;99.90;;;-0.17;100.00;100630.88;5113562;28;20695;-80
2020/12/10 10:40:39;;;;;;;33.27;20.97;;;4.40;99.90;;;-0.14;100.00;100630.91;5111047;28;20209;-78
2020/12/10 10:43:25;;;;;;;34.70;21.07;;;4.30;99.90;;;-0.08;100.00;100620.84;5123202;27;20240;-79
2020/12/10 10:46:11;;;;;;;34.43;21.50;;;4.30;99.90;;;0.04;100.00;100620.16;5109472;28;20217;-79
2020/12/10 10:48:56;;;;;;;34.27;21.30;;;4.30;99.90;;;0.07;100.00;100616.81;5121570;28;20240;-80
2020/12/10 10:51:41;;;;;;;38.03;22.13;;;4.20;99.90;;;0.24;100.00;100602.63;5128574;28;20223;-80
2020/12/10 10:54:26;;;;;;;36.97;21.10;;;4.20;99.90;;;0.23;100.00;100610.25;5123437;28;20219;-79
2020/12/10 10:57:12;;;;;;;38.20;22.20;;;4.20;99.90;;;0.38;100.00;100610.44;5131867;28;20216;-79
2020/12/10 10:59:57;;;;;;;34.57;21.53;;;4.20;99.90;;;0.52;100.00;100610.63;5128095;28;20196;-77
2020/12/10 11:02:43;;;;;;;36.90;21.53;;;4.20;99.90;;;1.03;100.00;100598.44;5137189;28;20208;-78
2020/12/10 11:05:29;;;;;;;38.77;23.70;;;4.20;99.90;;;1.26;100.00;100602.91;5132843;28;20209;-79
2020/12/10 11:08:14;;;;;;;38.30;23.40;;;4.30;99.90;;;0.78;100.00;100599.88;5118196;28;20301;-78
2020/12/10 11:10:59;;;;;;;33.30;20.83;;;4.40;99.90;;;0.52;100.00;100603.00;5122866;28;20628;-78
2020/12/10 11:13:44;;;;;;;34.63;20.43;;;4.50;99.90;;;0.55;100.00;100600.47;5113058;28;20263;-78
2020/12/10 11:16:29;;;;;;;37.20;21.37;;;4.60;99.90;;;0.61;100.00;100595.44;5111504;28;20248;-78
2020/12/10 11:19:15;;;;;;;35.00;19.93;;;4.70;99.90;;;0.55;100.00;100602.16;5115390;28;20208;-78
2020/12/10 11:22:01;;;;;;;35.07;20.60;;;4.80;99.90;;;0.52;100.00;100603.00;5112424;28;20311;-78
2020/12/10 11:24:46;;;;;;;35.13;20.83;;;4.90;99.90;;;0.55;100.00;100597.06;5103077;28;20217;-79